Ammon, Idaho
Current Conditions -  °F | °C
As of 3:53 AM on Thursday 23 Oct 2014 (Local Time) from KIDA Reporting Station
Overcast Overcast  
Wind Chill: 41°   Ceiling: 10000
Heat Index: 41°   Visibility: 10mi
Dew Point: 32°   Wind: 3mph
Humidity: 70%   Direction: 350°N
Pressure: 30.13"   Gusts: NA
Location:  43.4284°N, 111.925°W
Report Text: KIDA 230953Z 35003KT 10SM OVC100 05/00 A3013 RMK AO2 SLP194 T00500000
Loading
Personal Weather Stations






























Interactive Weather Map New forecast layout! Learn more

10-Day Weather Forecast

Advertisements
Track Severe Weather on mobile